createdAt,value
2024-01-05T00:01:12.078Z,68.96
2024-01-05T00:03:39.692Z,69.00
2024-01-05T00:06:09.028Z,69.04
2024-01-05T00:08:36.175Z,69.05
2024-01-05T00:11:03.673Z,69.03
2024-01-05T00:13:30.819Z,69.09
2024-01-05T00:15:57.900Z,69.03
2024-01-05T00:18:26.218Z,69.15
2024-01-05T00:20:53.718Z,69.13
2024-01-05T00:23:21.219Z,69.17
2024-01-05T00:25:49.117Z,69.32
2024-01-05T00:28:16.258Z,69.30
2024-01-05T00:30:43.488Z,69.33
2024-01-05T00:33:11.080Z,69.28
2024-01-05T00:35:39.144Z,69.34
2024-01-05T00:38:06.236Z,69.41
2024-01-05T00:40:33.760Z,69.44
2024-01-05T00:43:01.313Z,69.56
2024-01-05T00:45:28.452Z,69.66
2024-01-05T00:47:56.401Z,69.67
2024-01-05T00:50:23.727Z,69.71
2024-01-05T00:52:51.349Z,69.65
2024-01-05T00:55:18.921Z,69.72
2024-01-05T00:57:46.645Z,69.73
2024-01-05T01:00:15.023Z,69.75
2024-01-05T01:02:43.286Z,69.75
2024-01-05T01:05:11.311Z,69.67
2024-01-05T01:07:40.799Z,69.69
2024-01-05T01:10:08.285Z,69.82
2024-01-05T01:12:35.783Z,69.76
2024-01-05T01:15:03.381Z,69.81
2024-01-05T01:17:31.912Z,69.84
2024-01-05T01:19:59.612Z,69.85
2024-01-05T01:22:26.448Z,69.84
2024-01-05T01:24:53.892Z,69.83
2024-01-05T01:27:21.399Z,69.86
2024-01-05T01:29:49.755Z,69.84
2024-01-05T01:32:16.675Z,69.81
2024-01-05T01:34:44.477Z,69.80
2024-01-05T01:37:11.916Z,69.84
2024-01-05T01:39:39.069Z,69.79
2024-01-05T01:42:06.317Z,69.85
2024-01-05T01:44:33.564Z,69.71
2024-01-05T01:47:00.898Z,69.73
2024-01-05T01:49:28.451Z,69.72
2024-01-05T01:51:56.355Z,69.64
2024-01-05T01:54:23.932Z,69.52
2024-01-05T01:56:52.196Z,69.52
2024-01-05T01:59:20.042Z,69.48
2024-01-05T02:01:47.944Z,69.46
2024-01-05T02:04:19.256Z,69.39
2024-01-05T02:06:48.181Z,69.43
2024-01-05T02:09:15.391Z,69.41
2024-01-05T02:11:42.602Z,69.33
2024-01-05T02:14:10.560Z,69.36
2024-01-05T02:16:37.639Z,69.33
2024-01-05T02:19:05.388Z,69.31
2024-01-05T02:21:39.229Z,69.24
2024-01-05T02:24:06.972Z,69.21
2024-01-05T02:26:34.617Z,69.26
2024-01-05T02:29:05.154Z,69.35
2024-01-05T02:31:32.553Z,69.31
2024-01-05T02:34:00.163Z,69.33
2024-01-05T02:36:27.996Z,69.29
2024-01-05T02:38:55.242Z,69.29
2024-01-05T02:41:23.116Z,69.25
2024-01-05T02:43:50.601Z,69.29
2024-01-05T02:46:17.708Z,69.18
2024-01-05T02:48:45.905Z,69.14
2024-01-05T02:51:15.873Z,69.15
2024-01-05T02:53:43.184Z,69.13
2024-01-05T02:56:20.310Z,69.15
2024-01-05T02:58:48.147Z,69.19
2024-01-05T03:01:18.878Z,69.22
2024-01-05T03:03:51.270Z,69.20
2024-01-05T03:06:21.106Z,69.21
2024-01-05T03:08:48.203Z,69.19
2024-01-05T03:11:15.786Z,69.18
2024-01-05T03:13:43.284Z,69.08
2024-01-05T03:16:10.824Z,69.04
2024-01-05T03:18:38.345Z,69.07
2024-01-05T03:21:05.909Z,69.06
2024-01-05T03:23:33.628Z,69.08
2024-01-05T03:26:00.674Z,69.03
2024-01-05T03:28:28.346Z,69.01
2024-01-05T03:30:55.793Z,68.94
2024-01-05T03:33:23.337Z,68.91
2024-01-05T03:35:50.907Z,68.89
2024-01-05T03:38:18.200Z,68.92
2024-01-05T03:40:45.608Z,68.87
2024-01-05T03:43:13.017Z,68.86
2024-01-05T03:45:40.570Z,68.85
2024-01-05T03:48:08.373Z,68.81
2024-01-05T03:50:35.277Z,68.75
2024-01-05T03:53:02.668Z,68.74
2024-01-05T03:55:30.039Z,68.70
2024-01-05T03:57:57.435Z,68.68
2024-01-05T04:00:25.031Z,68.70
2024-01-05T04:02:52.329Z,68.70
2024-01-05T04:05:19.762Z,68.66
2024-01-05T04:07:47.273Z,68.72
2024-01-05T04:10:14.787Z,68.74
2024-01-05T04:12:41.935Z,68.79
2024-01-05T04:15:10.131Z,68.84
2024-01-05T04:17:37.329Z,68.81
2024-01-05T04:20:05.123Z,68.83
2024-01-05T04:22:33.116Z,68.81
2024-01-05T04:25:00.505Z,68.87
2024-01-05T04:27:28.018Z,68.89
2024-01-05T04:29:55.508Z,68.83
2024-01-05T04:32:22.644Z,68.88
2024-01-05T04:34:50.072Z,68.91
2024-01-05T04:37:17.889Z,68.95
2024-01-05T04:39:45.116Z,68.93
2024-01-05T04:42:13.251Z,68.95
2024-01-05T04:44:41.001Z,68.92
2024-01-05T04:47:08.441Z,68.92
2024-01-05T04:49:35.926Z,68.99
2024-01-05T04:52:03.898Z,68.96
2024-01-05T04:54:31.287Z,68.96
2024-01-05T04:57:00.157Z,68.93
2024-01-05T04:59:28.224Z,68.93
2024-01-05T05:01:55.412Z,68.97
2024-01-05T05:04:22.924Z,68.91
2024-01-05T05:06:50.723Z,68.99
2024-01-05T05:09:18.151Z,68.97
2024-01-05T05:11:45.694Z,69.04
2024-01-05T05:14:12.942Z,69.04
2024-01-05T05:16:41.615Z,69.09
2024-01-05T05:19:09.472Z,69.03
2024-01-05T05:21:37.472Z,69.01
2024-01-05T05:24:05.363Z,69.10
2024-01-05T05:26:32.801Z,69.17
2024-01-05T05:29:00.215Z,69.17
2024-01-05T05:31:27.792Z,69.24
2024-01-05T05:33:55.176Z,69.25
2024-01-05T05:36:23.173Z,69.35
2024-01-05T05:38:50.688Z,69.37
2024-01-05T05:41:18.380Z,69.43
2024-01-05T05:43:47.329Z,69.48
2024-01-05T05:46:15.260Z,69.54
2024-01-05T05:48:42.559Z,69.63
2024-01-05T05:51:09.808Z,69.70
2024-01-05T05:53:37.344Z,69.71
2024-01-05T05:56:05.271Z,69.80
2024-01-05T05:58:32.384Z,69.83
2024-01-05T06:01:00.443Z,69.88
2024-01-05T06:03:28.048Z,69.97
2024-01-05T06:05:55.247Z,69.94
2024-01-05T06:08:23.092Z,69.88
2024-01-05T06:10:50.156Z,69.89
2024-01-05T06:13:17.546Z,69.99
2024-01-05T06:15:45.007Z,70.03
2024-01-05T06:18:12.930Z,70.05
2024-01-05T06:20:40.401Z,70.06
2024-01-05T06:23:07.850Z,70.09
2024-01-05T06:25:35.154Z,70.14
2024-01-05T06:28:02.751Z,70.16
2024-01-05T06:30:30.434Z,70.12
2024-01-05T06:32:57.799Z,70.18
2024-01-05T06:35:25.346Z,70.13
2024-01-05T06:37:52.797Z,70.21
2024-01-05T06:40:19.948Z,70.29
2024-01-05T06:42:47.133Z,70.30
2024-01-05T06:45:15.390Z,70.34
2024-01-05T06:47:42.485Z,70.37
2024-01-05T06:50:09.942Z,70.39
2024-01-05T06:52:37.789Z,70.38
2024-01-05T06:55:04.856Z,70.48
2024-01-05T06:57:33.318Z,70.53
2024-01-05T07:00:01.018Z,70.50
2024-01-05T07:02:29.860Z,70.53
2024-01-05T07:04:57.382Z,70.43
2024-01-05T07:07:25.494Z,70.42
2024-01-05T07:09:52.916Z,70.44
2024-01-05T07:12:21.116Z,70.54
2024-01-05T07:14:48.801Z,70.55
2024-01-05T07:17:16.522Z,70.62
2024-01-05T07:19:43.705Z,70.58
2024-01-05T07:22:11.161Z,70.50
2024-01-05T07:24:40.012Z,70.49
2024-01-05T07:27:07.831Z,70.41
2024-01-05T07:29:35.451Z,70.37
2024-01-05T07:32:03.213Z,70.38
2024-01-05T07:34:30.443Z,70.33
2024-01-05T07:36:57.345Z,70.32
2024-01-05T07:39:25.108Z,70.27
2024-01-05T07:41:52.816Z,70.21
2024-01-05T07:44:20.261Z,70.11
2024-01-05T07:46:47.419Z,70.07
2024-01-05T07:49:14.718Z,70.07
2024-01-05T07:51:42.826Z,70.03
2024-01-05T07:54:10.540Z,69.98
2024-01-05T07:56:41.840Z,69.89
2024-01-05T07:59:09.341Z,69.79
2024-01-05T08:01:36.251Z,69.78
2024-01-05T08:04:03.243Z,69.79
2024-01-05T08:06:31.318Z,69.75
2024-01-05T08:08:58.305Z,69.75
2024-01-05T08:11:25.393Z,69.63
2024-01-05T08:13:53.588Z,69.56
2024-01-05T08:16:20.807Z,69.51
2024-01-05T08:18:48.789Z,69.44
2024-01-05T08:21:16.339Z,69.37
2024-01-05T08:23:43.578Z,69.32
2024-01-05T08:26:10.483Z,69.16
2024-01-05T08:28:38.045Z,69.04
2024-01-05T08:31:05.569Z,68.96
2024-01-05T08:33:32.909Z,68.87
2024-01-05T08:36:00.880Z,68.70
2024-01-05T08:38:28.713Z,68.57
2024-01-05T08:40:56.170Z,68.44
2024-01-05T08:43:23.547Z,68.31
2024-01-05T08:45:50.506Z,68.18
2024-01-05T08:48:18.175Z,68.02
2024-01-05T08:50:45.348Z,67.94
2024-01-05T08:53:13.213Z,67.83
2024-01-05T08:55:40.929Z,67.73
2024-01-05T08:58:08.497Z,67.65
2024-01-05T09:03:20.777Z,67.51
2024-01-05T09:05:48.419Z,67.49
2024-01-05T09:08:15.906Z,67.48
2024-01-05T09:10:43.147Z,67.52
2024-01-05T09:13:10.350Z,67.54
2024-01-05T09:15:37.596Z,67.51
2024-01-05T09:18:06.770Z,67.51
2024-01-05T09:20:34.448Z,67.51
2024-01-05T09:23:01.990Z,67.49
2024-01-05T09:25:30.533Z,67.48
2024-01-05T09:28:01.648Z,67.51
2024-01-05T09:30:28.927Z,67.50
2024-01-05T09:32:58.755Z,67.50
2024-01-05T09:35:27.229Z,67.50
2024-01-05T09:37:54.432Z,67.52
2024-01-05T09:40:22.015Z,67.51
2024-01-05T09:42:53.002Z,67.52
2024-01-05T09:45:22.770Z,67.49
2024-01-05T09:47:51.709Z,67.50
2024-01-05T09:50:19.838Z,67.51
2024-01-05T09:52:46.966Z,67.51
2024-01-05T09:55:14.519Z,67.45
2024-01-05T09:57:43.669Z,67.42
2024-01-05T10:00:16.195Z,67.39
2024-01-05T10:02:55.415Z,67.37
2024-01-05T10:05:22.644Z,67.37
2024-01-05T10:07:50.566Z,67.33
2024-01-05T10:10:17.737Z,67.32
2024-01-05T10:12:45.482Z,67.28
2024-01-05T10:15:14.456Z,67.22
2024-01-05T10:17:41.856Z,67.14
2024-01-05T10:20:18.730Z,67.11
2024-01-05T10:22:48.108Z,67.07
2024-01-05T10:25:23.465Z,67.05
2024-01-05T10:27:54.572Z,67.03
2024-01-05T10:30:26.900Z,66.97
2024-01-05T10:33:05.387Z,66.90
2024-01-05T10:35:35.841Z,66.83
2024-01-05T10:38:10.916Z,66.77
2024-01-05T10:40:41.954Z,66.71
2024-01-05T10:43:14.896Z,66.69
2024-01-05T10:45:43.927Z,66.68
2024-01-05T10:48:15.636Z,66.68
2024-01-05T10:50:45.168Z,66.70
2024-01-05T10:53:13.486Z,66.69
2024-01-05T10:55:41.545Z,66.68
2024-01-05T10:58:09.404Z,66.64
2024-01-05T11:00:38.347Z,66.62
2024-01-05T11:03:05.504Z,66.61
2024-01-05T11:05:33.103Z,66.60
2024-01-05T11:08:02.564Z,66.59
2024-01-05T11:10:53.842Z,66.56
2024-01-05T11:13:49.324Z,66.46
2024-01-05T11:16:19.547Z,66.39
2024-01-05T11:19:05.695Z,66.35
2024-01-05T11:21:53.199Z,66.28
2024-01-05T11:24:22.564Z,66.26
2024-01-05T11:26:49.725Z,66.28
2024-01-05T11:29:48.944Z,66.27
2024-01-05T11:32:34.703Z,66.26
2024-01-05T11:35:25.544Z,66.19
2024-01-05T11:37:53.178Z,66.17
2024-01-05T11:40:34.037Z,65.90
2024-01-05T11:43:37.751Z,65.78
2024-01-05T11:46:06.036Z,65.83
2024-01-05T11:48:37.904Z,65.88
2024-01-05T11:51:09.899Z,65.90
2024-01-05T11:53:37.636Z,65.83
2024-01-05T11:56:11.743Z,66.04
2024-01-05T11:58:45.034Z,66.06
2024-01-05T12:01:14.523Z,66.02
2024-01-05T12:03:42.923Z,65.94
2024-01-05T12:06:11.991Z,65.93
2024-01-05T12:08:41.962Z,65.92
2024-01-05T12:11:12.559Z,65.93
2024-01-05T12:13:40.295Z,65.92
2024-01-05T12:16:10.470Z,65.89
2024-01-05T12:18:45.238Z,65.86
2024-01-05T12:21:16.100Z,65.85
2024-01-05T12:23:52.932Z,65.82
2024-01-05T12:26:20.407Z,65.87
2024-01-05T12:28:49.631Z,65.88
2024-01-05T12:31:17.195Z,65.79
2024-01-05T12:33:45.094Z,65.69
2024-01-05T12:36:24.945Z,65.65
2024-01-05T12:38:52.503Z,65.52
2024-01-05T12:41:21.670Z,65.47
2024-01-05T12:43:54.260Z,65.31
2024-01-05T12:46:24.338Z,65.17
2024-01-05T12:48:52.348Z,65.04
2024-01-05T12:51:21.325Z,64.91
2024-01-05T12:54:06.691Z,64.91
2024-01-05T12:56:34.396Z,64.76
2024-01-05T12:59:04.100Z,64.68
2024-01-05T13:01:30.964Z,64.72
2024-01-05T13:04:01.594Z,64.59
2024-01-05T13:06:32.099Z,64.62
2024-01-05T13:08:59.780Z,64.59
2024-01-05T13:11:27.531Z,64.48
2024-01-05T13:13:55.114Z,64.44
2024-01-05T13:16:22.276Z,64.46
2024-01-05T13:18:50.088Z,64.50
2024-01-05T13:21:17.560Z,64.51
2024-01-05T13:23:45.899Z,64.43
2024-01-05T13:26:12.792Z,64.30
2024-01-05T13:28:42.236Z,64.18
2024-01-05T13:31:10.564Z,64.17
2024-01-05T13:33:38.478Z,64.13
2024-01-05T13:36:06.963Z,64.07
2024-01-05T13:38:35.148Z,63.94
2024-01-05T13:41:02.621Z,63.85
2024-01-05T13:43:30.041Z,63.75
2024-01-05T13:46:00.124Z,63.67
2024-01-05T13:48:28.227Z,63.74
2024-01-05T13:50:55.286Z,63.67
2024-01-05T13:53:22.858Z,63.71
2024-01-05T13:55:50.094Z,63.71
2024-01-05T13:58:17.367Z,63.74
2024-01-05T14:00:46.462Z,63.70
2024-01-05T14:03:13.470Z,63.72
2024-01-05T14:05:40.931Z,63.66
2024-01-05T14:08:08.732Z,63.50
2024-01-05T14:10:35.852Z,63.52
2024-01-05T14:13:02.799Z,63.48
2024-01-05T14:15:30.393Z,63.48
2024-01-05T14:17:57.283Z,63.47
2024-01-05T14:20:24.397Z,63.46
2024-01-05T14:22:52.234Z,63.48
2024-01-05T14:25:19.094Z,63.44
2024-01-05T14:27:46.359Z,63.43
2024-01-05T14:30:13.973Z,63.40
2024-01-05T14:32:41.405Z,63.35
2024-01-05T14:35:09.073Z,63.35
2024-01-05T14:37:38.159Z,63.39
2024-01-05T14:40:07.506Z,63.40
2024-01-05T14:42:34.661Z,63.44
2024-01-05T14:45:02.232Z,63.43
2024-01-05T14:47:30.726Z,63.38
2024-01-05T14:49:58.266Z,63.30
2024-01-05T14:52:25.873Z,63.39
2024-01-05T14:54:57.412Z,63.46
2024-01-05T14:57:25.239Z,63.42
2024-01-05T14:59:54.805Z,63.35
2024-01-05T15:02:22.046Z,63.32
2024-01-05T15:04:49.668Z,63.35
2024-01-05T15:07:17.055Z,63.45
2024-01-05T15:09:45.639Z,63.49
2024-01-05T15:12:14.774Z,63.51
2024-01-05T15:14:41.767Z,63.51
2024-01-05T15:17:09.349Z,63.62
2024-01-05T15:19:37.662Z,63.67
2024-01-05T15:22:05.018Z,63.70
2024-01-05T15:24:32.267Z,63.68
2024-01-05T15:27:00.870Z,63.70
2024-01-05T15:29:27.997Z,63.79
2024-01-05T15:31:55.810Z,63.76
2024-01-05T15:34:23.856Z,63.73
2024-01-05T15:36:53.403Z,63.75
2024-01-05T15:39:20.947Z,63.80
2024-01-05T15:41:48.529Z,63.85
2024-01-05T15:44:16.522Z,63.92
2024-01-05T15:46:44.304Z,63.98
2024-01-05T15:49:11.456Z,64.00
2024-01-05T15:51:39.070Z,64.05
2024-01-05T15:54:06.796Z,64.09
2024-01-05T15:56:34.699Z,64.16
2024-01-05T15:59:02.151Z,64.19
2024-01-05T16:01:29.027Z,64.28
2024-01-05T16:03:56.603Z,64.32
2024-01-05T16:06:24.227Z,64.40
2024-01-05T16:08:51.511Z,64.42
2024-01-05T16:11:19.166Z,64.45
2024-01-05T16:13:48.637Z,64.48
2024-01-05T16:16:21.479Z,64.52
2024-01-05T16:18:51.302Z,64.58
2024-01-05T16:21:23.234Z,64.60
2024-01-05T16:23:51.901Z,64.63
2024-01-05T16:26:20.593Z,64.64
2024-01-05T16:28:47.852Z,64.72
2024-01-05T16:31:15.462Z,64.69
2024-01-05T16:33:43.261Z,64.69
2024-01-05T16:36:11.439Z,64.72
2024-01-05T16:38:38.580Z,64.73
2024-01-05T16:41:10.453Z,64.74
2024-01-05T16:43:38.725Z,64.74
2024-01-05T16:46:06.562Z,64.78
2024-01-05T16:48:34.183Z,64.81
2024-01-05T16:51:02.173Z,64.81
2024-01-05T16:53:30.861Z,64.84
2024-01-05T16:55:58.199Z,64.85
2024-01-05T16:58:25.202Z,64.87
2024-01-05T17:00:53.203Z,64.87
2024-01-05T17:03:20.639Z,64.94
2024-01-05T17:05:48.543Z,64.96
2024-01-05T17:08:16.505Z,65.03
2024-01-05T17:10:43.751Z,65.07
2024-01-05T17:13:10.858Z,65.14
2024-01-05T17:15:38.056Z,65.21
2024-01-05T17:18:06.041Z,65.28
2024-01-05T17:20:33.560Z,65.33
2024-01-05T17:23:01.449Z,65.44
2024-01-05T17:25:28.286Z,65.49
2024-01-05T17:27:55.479Z,65.63
2024-01-05T17:30:23.647Z,65.71
2024-01-05T17:32:51.062Z,65.84
2024-01-05T17:35:21.046Z,65.95
2024-01-05T17:37:48.630Z,66.07
2024-01-05T17:40:15.943Z,66.16
2024-01-05T17:42:42.915Z,66.23
2024-01-05T17:45:10.677Z,66.39
2024-01-05T17:47:38.458Z,66.52
2024-01-05T17:50:06.086Z,66.58
2024-01-05T17:52:33.284Z,66.68
2024-01-05T17:55:00.398Z,66.76
2024-01-05T17:57:27.734Z,66.87
2024-01-05T17:59:54.913Z,66.94
2024-01-05T18:02:22.094Z,67.04
2024-01-05T18:04:50.005Z,67.08
2024-01-05T18:07:18.198Z,67.15
2024-01-05T18:09:46.173Z,67.15
2024-01-05T18:12:13.624Z,67.20
2024-01-05T18:14:40.588Z,67.27
2024-01-05T18:17:08.297Z,67.33
2024-01-05T18:19:35.639Z,67.35
2024-01-05T18:22:03.277Z,67.36
2024-01-05T18:24:31.105Z,67.38
2024-01-05T18:26:59.916Z,67.40
2024-01-05T18:29:29.539Z,67.46
2024-01-05T18:32:00.620Z,67.48
2024-01-05T18:34:28.574Z,67.51
2024-01-05T18:36:56.283Z,67.56
2024-01-05T18:39:23.370Z,67.50
2024-01-05T18:41:50.732Z,67.50
2024-01-05T18:44:18.285Z,67.54
2024-01-05T18:46:45.681Z,67.55
2024-01-05T18:49:14.041Z,67.61
2024-01-05T18:51:41.176Z,67.69
2024-01-05T18:54:08.609Z,67.76
2024-01-05T18:56:36.269Z,67.83
2024-01-05T18:59:04.842Z,67.91
2024-01-05T19:01:33.464Z,67.92
2024-01-05T19:04:01.157Z,67.89
2024-01-05T19:06:28.631Z,67.92
2024-01-05T19:08:55.625Z,67.93
2024-01-05T19:11:23.505Z,67.93
2024-01-05T19:13:50.620Z,67.94
2024-01-05T19:16:18.034Z,67.93
2024-01-05T19:18:45.987Z,67.94
2024-01-05T19:21:14.929Z,67.96
2024-01-05T19:23:41.964Z,67.96
2024-01-05T19:26:09.271Z,67.92
2024-01-05T19:28:36.408Z,67.90
2024-01-05T19:31:05.570Z,67.89
2024-01-05T19:33:34.153Z,67.87
2024-01-05T19:36:01.892Z,67.86
2024-01-05T19:38:29.679Z,67.84
2024-01-05T19:40:56.746Z,67.84
2024-01-05T19:43:23.678Z,67.81
2024-01-05T19:45:51.903Z,67.81
2024-01-05T19:48:19.243Z,67.78
2024-01-05T19:50:47.226Z,67.78
2024-01-05T19:53:14.703Z,67.79
2024-01-05T19:55:41.509Z,67.80
2024-01-05T19:58:08.635Z,67.85
2024-01-05T20:00:36.374Z,67.84
2024-01-05T20:03:06.015Z,67.89
2024-01-05T20:05:34.182Z,67.92
2024-01-05T20:08:02.638Z,67.92
2024-01-05T20:10:31.229Z,67.95
2024-01-05T20:12:58.900Z,67.94
2024-01-05T20:15:28.521Z,67.95
2024-01-05T20:17:56.443Z,67.97
2024-01-05T20:20:23.760Z,67.97
2024-01-05T20:22:50.934Z,67.98
2024-01-05T20:25:17.827Z,67.98
2024-01-05T20:27:45.518Z,67.99
2024-01-05T20:30:13.888Z,68.00
2024-01-05T20:32:41.479Z,68.02
2024-01-05T20:35:11.354Z,68.00
2024-01-05T20:37:39.408Z,68.01
2024-01-05T20:40:10.227Z,68.01
2024-01-05T20:42:38.123Z,68.00
2024-01-05T20:45:09.054Z,67.98
2024-01-05T20:47:36.314Z,68.00
2024-01-05T20:50:05.056Z,68.05
2024-01-05T20:52:34.328Z,68.11
2024-01-05T20:55:02.525Z,68.13
2024-01-05T20:57:29.840Z,68.19
2024-01-05T20:59:57.578Z,68.19
2024-01-05T21:02:25.063Z,68.20
2024-01-05T21:04:52.935Z,68.20
2024-01-05T21:07:20.539Z,68.22
2024-01-05T21:09:48.109Z,68.25
2024-01-05T21:12:15.281Z,68.26
2024-01-05T21:14:42.551Z,68.24
2024-01-05T21:17:10.056Z,68.25
2024-01-05T21:19:41.454Z,68.26
2024-01-05T21:22:09.158Z,68.27
2024-01-05T21:24:41.788Z,68.27
2024-01-05T21:27:10.989Z,68.26
2024-01-05T21:29:46.199Z,68.26
2024-01-05T21:32:17.415Z,68.25
2024-01-05T21:34:45.433Z,68.28
2024-01-05T21:37:16.324Z,68.28
2024-01-05T21:39:43.563Z,68.25
2024-01-05T21:42:12.380Z,68.23
2024-01-05T21:44:39.595Z,68.21
2024-01-05T21:47:07.261Z,68.20
2024-01-05T21:49:36.887Z,68.15
2024-01-05T21:52:04.966Z,68.11
2024-01-05T21:54:31.820Z,68.13
2024-01-05T21:57:01.165Z,68.13
2024-01-05T21:59:30.478Z,68.12
2024-01-05T22:01:58.668Z,68.13
2024-01-05T22:04:29.149Z,68.11
2024-01-05T22:06:57.932Z,68.10
2024-01-05T22:09:25.280Z,68.10
2024-01-05T22:11:52.674Z,68.10
2024-01-05T22:14:20.146Z,68.14
2024-01-05T22:16:50.337Z,68.14
2024-01-05T22:19:17.576Z,68.15
2024-01-05T22:21:45.160Z,68.14
2024-01-05T22:24:12.684Z,68.14
2024-01-05T22:26:39.557Z,68.17
2024-01-05T22:29:07.450Z,68.19
2024-01-05T22:31:34.958Z,68.20
2024-01-05T22:34:02.403Z,68.15
2024-01-05T22:36:29.946Z,68.22
2024-01-05T22:38:57.437Z,68.19
2024-01-05T22:41:25.000Z,68.20
2024-01-05T22:43:53.808Z,68.24
2024-01-05T22:46:22.249Z,68.26
2024-01-05T22:48:50.590Z,68.29
2024-01-05T22:51:25.887Z,68.34
2024-01-05T22:53:53.586Z,68.34
2024-01-05T22:56:21.155Z,68.39
2024-01-05T22:58:48.169Z,68.44
2024-01-05T23:01:24.635Z,68.46
2024-01-05T23:03:53.229Z,68.47
2024-01-05T23:06:21.182Z,68.49
2024-01-05T23:08:48.854Z,68.51
2024-01-05T23:11:16.420Z,68.49
2024-01-05T23:13:45.039Z,68.56
2024-01-05T23:16:12.576Z,68.56
2024-01-05T23:18:40.194Z,68.56
2024-01-05T23:21:09.108Z,68.59
2024-01-05T23:23:37.829Z,68.63
2024-01-05T23:26:05.362Z,68.65
2024-01-05T23:28:32.884Z,68.62
2024-01-05T23:31:00.113Z,68.63
2024-01-05T23:33:28.160Z,68.63
2024-01-05T23:35:55.693Z,68.67
2024-01-05T23:38:23.624Z,68.71
2024-01-05T23:40:51.116Z,68.71
2024-01-05T23:43:18.291Z,68.73
2024-01-05T23:45:45.812Z,68.75
2024-01-05T23:48:13.992Z,68.77
2024-01-05T23:50:41.241Z,68.80
2024-01-05T23:53:08.622Z,68.83
2024-01-05T23:55:35.780Z,68.87
2024-01-05T23:58:04.234Z,68.89
